Time;durP1;ratioP1;P1;durP2;ratioP2;P2;SDS_P1;SDS_P2;PMS_P1;PMS_P2;Temp;Humidity;BMP_temperature;BMP_pressure;BME280_temperature;BME280_humidity;BME280_pressure;Samples;Min_cycle;Max_cycle;Signal;HPM_P1;HPM_P2
2022/07/10 00:00:05;;;;;;;3.52;3.17;;;;;;;13.86;88.64;94468.75;1662967;85;21025;-55
2022/07/10 00:02:36;;;;;;;4.28;2.58;;;;;;;13.78;88.84;94464.84;1661037;85;21081;-54
2022/07/10 00:05:05;;;;;;;5.12;2.77;;;;;;;13.72;89.03;94461.96;1669544;84;21011;-53
2022/07/10 00:07:33;;;;;;;8.68;2.92;;;;;;;13.70;89.07;94459.52;1667505;85;21279;-53
2022/07/10 00:10:01;;;;;;;3.02;2.83;;;;;;;13.69;89.29;94461.53;1664706;85;21089;-54
2022/07/10 00:12:29;;;;;;;4.70;2.90;;;;;;;13.66;89.30;94454.16;1657084;85;21018;-53
2022/07/10 00:14:58;;;;;;;4.17;2.85;;;;;;;13.65;89.26;94451.89;1662152;85;20993;-54
2022/07/10 00:17:26;;;;;;;5.62;2.67;;;;;;;13.61;89.10;94450.68;1664036;85;20978;-53
2022/07/10 00:19:54;;;;;;;5.85;2.50;;;;;;;13.57;88.79;94442.42;1665678;85;21253;-54
2022/07/10 00:22:22;;;;;;;3.90;2.80;;;;;;;13.53;88.54;94446.77;1662817;84;21083;-54
2022/07/10 00:24:50;;;;;;;3.33;3.00;;;;;;;13.48;88.66;94445.27;1668468;85;21506;-55
2022/07/10 00:27:18;;;;;;;6.30;2.72;;;;;;;13.39;88.64;94437.81;1664650;85;21204;-55
2022/07/10 00:29:46;;;;;;;3.52;2.90;;;;;;;13.33;88.93;94433.41;1661019;85;21594;-53
2022/07/10 00:32:15;;;;;;;7.25;2.80;;;;;;;13.30;89.04;94432.34;1657641;85;21262;-53
2022/07/10 00:34:42;;;;;;;8.70;3.10;;;;;;;13.32;89.08;94436.02;1665406;84;21034;-53
2022/07/10 00:37:10;;;;;;;5.45;3.45;;;;;;;13.28;88.70;94430.67;1664113;85;21222;-53
2022/07/10 00:39:38;;;;;;;5.03;3.25;;;;;;;13.14;88.41;94430.63;1660600;85;21121;-53
2022/07/10 00:42:09;;;;;;;6.10;3.33;;;;;;;13.01;88.99;94429.48;1671372;85;20983;-53
2022/07/10 00:44:38;;;;;;;3.00;2.80;;;;;;;12.98;89.40;94431.03;1665453;84;21260;-54
2022/07/10 00:47:06;;;;;;;3.58;3.05;;;;;;;12.96;89.22;94422.46;1669434;85;21092;-53
2022/07/10 00:49:36;;;;;;;5.40;3.40;;;;;;;12.91;88.97;94415.55;1663447;85;20999;-53
2022/07/10 00:52:08;;;;;;;12.03;3.60;;;;;;;12.86;89.16;94423.11;1658940;85;21471;-53
2022/07/10 00:54:40;;;;;;;3.30;3.00;;;;;;;12.85;89.19;94423.56;1657407;84;21025;-54
2022/07/10 00:57:09;;;;;;;4.35;2.80;;;;;;;12.81;88.97;94420.22;1665011;84;21220;-54
2022/07/10 00:59:37;;;;;;;4.83;2.85;;;;;;;12.73;88.94;94422.56;1660959;85;20966;-53
2022/07/10 01:02:06;;;;;;;3.67;3.37;;;;;;;12.66;88.78;94420.75;1667558;84;20987;-54
2022/07/10 01:04:35;;;;;;;3.75;3.33;;;;;;;12.60;89.13;94422.63;1662832;85;20982;-54
2022/07/10 01:07:03;;;;;;;3.42;2.92;;;;;;;12.58;89.46;94419.58;1666510;85;21573;-53
2022/07/10 01:09:32;;;;;;;3.10;2.80;;;;;;;12.57;89.36;94413.28;1663652;84;21123;-54
2022/07/10 01:12:01;;;;;;;3.25;2.77;;;;;;;12.56;89.15;94412.39;1653744;85;21026;-54
2022/07/10 01:14:30;;;;;;;6.90;3.95;;;;;;;12.54;89.11;94413.47;1661436;85;21077;-54
2022/07/10 01:17:00;;;;;;;4.87;3.10;;;;;;;12.51;89.23;94413.03;1666295;85;21025;-54
2022/07/10 01:19:28;;;;;;;4.30;3.15;;;;;;;12.48;89.33;94408.42;1663238;85;21073;-54
2022/07/10 01:21:58;;;;;;;3.80;3.50;;;;;;;12.41;89.26;94419.81;1670595;85;21085;-54
2022/07/10 01:24:26;;;;;;;5.10;3.12;;;;;;;12.35;89.40;94412.03;1663994;85;21073;-54
2022/07/10 01:26:54;;;;;;;4.30;3.55;;;;;;;12.33;89.69;94413.11;1670824;84;20995;-54
2022/07/10 01:29:21;;;;;;;3.98;3.67;;;;;;;12.31;90.04;94403.16;1661796;85;21002;-55
2022/07/10 01:31:49;;;;;;;16.73;3.98;;;;;;;12.31;90.32;94395.49;1669022;85;21225;-54
2022/07/10 01:34:17;;;;;;;4.20;3.12;;;;;;;12.33;90.50;94401.30;1665051;85;21091;-54
2022/07/10 01:36:44;;;;;;;3.90;3.33;;;;;;;12.30;90.33;94398.85;1672648;85;21495;-53
2022/07/10 01:39:13;;;;;;;10.72;4.30;;;;;;;12.26;90.57;94392.74;1661715;84;21021;-53
2022/07/10 01:41:41;;;;;;;5.60;3.90;;;;;;;12.22;90.63;94394.91;1662643;85;21434;-52
2022/07/10 01:44:09;;;;;;;5.60;4.87;;;;;;;12.16;90.75;94389.89;1664258;85;21124;-54
2022/07/10 01:46:48;;;;;;;3.85;3.50;;;;;;;12.12;90.68;94386.52;1668938;85;21123;-53
2022/07/10 01:49:17;;;;;;;7.22;3.52;;;;;;;12.10;90.87;94391.73;1668111;84;21526;-53
2022/07/10 01:51:45;;;;;;;6.15;3.33;;;;;;;12.08;90.39;94386.55;1665689;85;20998;-54
2022/07/10 01:54:14;;;;;;;5.28;3.60;;;;;;;12.02;90.24;94383.66;1665040;84;21006;-53
2022/07/10 01:56:41;;;;;;;4.12;3.55;;;;;;;11.90;90.03;94381.84;1670568;84;21131;-54
2022/07/10 01:59:10;;;;;;;5.12;3.35;;;;;;;11.78;90.09;94385.57;1659404;85;21157;-53
2022/07/10 02:01:37;;;;;;;5.62;3.67;;;;;;;11.68;90.33;94379.17;1662905;85;21624;-53
2022/07/10 02:06:52;;;;;;;5.03;3.47;;;;;;;11.57;91.01;94376.86;1668984;85;21544;-55
2022/07/10 02:09:20;;;;;;;6.50;3.65;;;;;;;11.60;91.58;94377.94;1664551;85;21100;-54
2022/07/10 02:11:49;;;;;;;4.62;3.75;;;;;;;11.64;91.79;94373.80;1658882;85;21152;-54
2022/07/10 02:14:17;;;;;;;8.70;3.62;;;;;;;11.72;91.51;94365.98;1663469;85;20969;-53
2022/07/10 02:16:45;;;;;;;4.20;3.75;;;;;;;11.75;91.08;94372.69;1660393;85;20994;-53
2022/07/10 02:19:14;;;;;;;8.68;4.47;;;;;;;11.77;90.63;94366.13;1661561;85;20973;-53
2022/07/10 02:21:44;;;;;;;5.10;4.45;;;;;;;11.71;90.34;94370.72;1663465;85;21074;-54
2022/07/10 02:24:12;;;;;;;5.53;4.20;;;;;;;11.64;90.14;94370.27;1663923;85;21113;-53
2022/07/10 02:26:40;;;;;;;5.45;4.30;;;;;;;11.57;90.21;94373.36;1665908;84;21601;-54
2022/07/10 02:29:08;;;;;;;7.45;5.05;;;;;;;11.50;90.57;94369.53;1664007;84;21014;-54
2022/07/10 02:31:40;;;;;;;5.65;4.53;;;;;;;11.49;91.21;94378.39;1658947;85;20990;-54
2022/07/10 02:34:10;;;;;;;5.75;5.03;;;;;;;11.53;91.47;94372.73;1666495;85;20969;-53
2022/07/10 02:36:39;;;;;;;8.30;6.12;;;;;;;11.52;91.92;94369.20;1670552;84;21110;-53
2022/07/10 02:39:08;;;;;;;5.87;5.25;;;;;;;11.54;92.40;94366.74;1666861;85;21211;-53
2022/07/10 02:41:36;;;;;;;7.97;5.42;;;;;;;11.58;92.61;94366.02;1670589;85;21559;-53
2022/07/10 02:44:04;;;;;;;6.28;4.97;;;;;;;11.63;92.81;94360.48;1624234;85;20995;-53
2022/07/10 02:46:32;;;;;;;8.20;5.47;;;;;;;11.68;92.80;94352.36;1661916;85;21449;-54
2022/07/10 02:49:00;;;;;;;4.67;4.25;;;;;;;11.71;92.85;94352.80;1662809;85;21157;-54
2022/07/10 02:51:29;;;;;;;8.75;4.97;;;;;;;11.72;92.84;94346.06;1660644;85;21102;-54
2022/07/10 02:53:58;;;;;;;6.25;3.67;;;;;;;11.72;92.77;94351.58;1665231;84;21015;-53
2022/07/10 02:56:26;;;;;;;7.53;4.00;;;;;;;11.74;92.68;94349.75;1668900;85;21581;-53
2022/07/10 02:58:55;;;;;;;4.20;3.80;;;;;;;11.72;92.63;94351.58;1663117;85;21093;-54
2022/07/10 03:01:24;;;;;;;6.37;4.40;;;;;;;11.70;92.74;94348.52;1665174;84;21180;-53
2022/07/10 03:03:52;;;;;;;4.35;3.95;;;;;;;11.68;92.82;94349.61;1664055;85;21011;-53
2022/07/10 03:06:21;;;;;;;8.23;3.92;;;;;;;11.69;92.75;94344.24;1660806;85;20993;-53
2022/07/10 03:08:50;;;;;;;5.17;4.00;;;;;;;11.72;92.72;94346.06;1668565;85;21022;-54
2022/07/10 03:11:20;;;;;;;6.15;4.47;;;;;;;11.77;92.95;94344.69;1665380;84;21093;-53
2022/07/10 03:13:48;;;;;;;10.95;4.78;;;;;;;11.85;93.06;94341.13;1663153;85;21228;-53
2022/07/10 03:16:17;;;;;;;6.42;4.65;;;;;;;11.89;92.69;94338.97;1658769;85;21073;-52
2022/07/10 03:18:46;;;;;;;8.48;4.62;;;;;;;11.91;92.34;94340.64;1662477;85;20994;-53
2022/07/10 03:21:14;;;;;;;7.05;3.90;;;;;;;11.93;92.22;94334.05;1661461;85;20973;-53
2022/07/10 03:23:43;;;;;;;7.15;4.05;;;;;;;11.96;92.17;94334.52;1669509;85;20988;-53
2022/07/10 03:26:13;;;;;;;6.70;4.30;;;;;;;11.99;91.98;94329.45;1664772;85;21157;-54
2022/07/10 03:28:41;;;;;;;7.85;4.30;;;;;;;11.97;91.85;94333.89;1662411;84;21070;-53
2022/07/10 03:31:09;;;;;;;5.85;4.20;;;;;;;11.92;91.52;94334.53;1657317;85;21311;-53
2022/07/10 03:33:38;;;;;;;4.75;4.12;;;;;;;11.91;91.57;94341.27;1663265;85;21089;-53
2022/07/10 03:36:07;;;;;;;6.80;4.30;;;;;;;11.88;91.63;94338.83;1661217;85;21100;-53
2022/07/10 03:38:36;;;;;;;4.33;3.92;;;;;;;11.90;91.85;94337.73;1667384;85;21232;-53
2022/07/10 03:41:05;;;;;;;6.08;4.90;;;;;;;11.96;92.08;94332.36;1671520;85;21045;-53
2022/07/10 03:43:33;;;;;;;6.65;4.10;;;;;;;12.01;91.85;94333.88;1667538;85;20987;-53
2022/07/10 03:46:02;;;;;;;12.65;4.42;;;;;;;12.08;91.84;94336.92;1663689;85;21007;-54
2022/07/10 03:48:30;;;;;;;7.35;4.78;;;;;;;12.17;91.71;94340.40;1656459;85;21093;-53
2022/07/10 03:50:59;;;;;;;7.58;4.53;;;;;;;12.25;91.53;94340.20;1674736;84;21260;-53
2022/07/10 03:53:28;;;;;;;7.65;4.50;;;;;;;12.25;91.17;94342.95;1669150;85;21094;-54
2022/07/10 03:55:56;;;;;;;7.62;3.90;;;;;;;12.26;90.90;94334.83;1659750;85;20993;-53
2022/07/10 03:58:25;;;;;;;6.35;4.55;;;;;;;12.31;90.79;94336.97;1665884;85;20980;-53
2022/07/10 04:00:53;;;;;;;5.35;4.85;;;;;;;12.41;91.00;94331.53;1670639;84;21030;-53
2022/07/10 04:03:21;;;;;;;6.78;4.35;;;;;;;12.52;91.26;94333.77;1667503;85;21084;-53
2022/07/10 04:05:49;;;;;;;8.78;4.65;;;;;;;12.58;91.01;94326.53;1651263;85;21172;-53
2022/07/10 04:08:19;;;;;;;5.53;4.75;;;;;;;12.60;90.51;94327.42;1656571;85;21120;-56
2022/07/10 04:10:47;;;;;;;8.80;4.45;;;;;;;12.64;90.57;94331.55;1668694;84;21043;-53
2022/07/10 04:13:14;;;;;;;4.80;4.40;;;;;;;12.70;89.66;94328.91;1665633;85;21577;-54
2022/07/10 04:15:42;;;;;;;4.17;3.83;;;;;;;12.74;89.27;94332.25;1661056;85;21839;-53
2022/07/10 04:18:10;;;;;;;5.83;3.72;;;;;;;12.76;89.12;94326.41;1672242;85;21550;-53
2022/07/10 04:20:39;;;;;;;5.15;4.35;;;;;;;12.82;89.01;94333.41;1657863;85;21584;-54
2022/07/10 04:23:07;;;;;;;5.55;3.80;;;;;;;12.90;88.84;94330.45;1633068;84;20967;-53
2022/07/10 04:25:35;;;;;;;5.05;3.80;;;;;;;12.98;88.21;94335.77;1661686;84;21089;-53
2022/07/10 04:28:04;;;;;;;5.22;3.65;;;;;;;13.07;87.76;94328.81;1673515;84;21315;-54
2022/07/10 04:30:33;;;;;;;4.35;3.65;;;;;;;13.10;87.43;94325.84;1673336;84;21030;-54
2022/07/10 04:33:00;;;;;;;7.60;3.75;;;;;;;13.14;87.17;94327.05;1663606;84;20986;-54
2022/07/10 04:35:29;;;;;;;8.85;4.08;;;;;;;13.22;86.88;94332.34;1662208;85;21060;-54
2022/07/10 04:37:57;;;;;;;3.70;3.40;;;;;;;13.30;85.88;94330.75;1663367;85;21002;-54
2022/07/10 04:40:26;;;;;;;4.42;3.50;;;;;;;13.38;84.83;94325.77;1666553;85;21153;-53
2022/07/10 04:42:54;;;;;;;4.22;3.47;;;;;;;13.45;84.33;94331.54;1660275;85;21527;-54
2022/07/10 04:45:22;;;;;;;5.37;3.60;;;;;;;13.50;84.11;94331.64;1661740;85;21102;-53
2022/07/10 04:47:50;;;;;;;4.78;3.83;;;;;;;13.59;83.99;94337.70;1664015;85;21125;-54
2022/07/10 04:50:18;;;;;;;4.05;3.67;;;;;;;13.68;83.62;94336.21;1657926;85;21018;-54
2022/07/10 04:52:46;;;;;;;5.35;3.70;;;;;;;13.75;82.89;94326.14;1661717;84;21285;-55
2022/07/10 04:55:16;;;;;;;4.08;3.40;;;;;;;13.78;82.06;94332.13;1668286;85;20982;-53
2022/07/10 04:57:44;;;;;;;3.75;3.45;;;;;;;13.81;81.74;94331.16;1661735;84;20987;-53
2022/07/10 05:00:13;;;;;;;13.13;3.75;;;;;;;13.84;81.22;94330.95;1671693;85;21058;-54
2022/07/10 05:02:41;;;;;;;13.10;3.67;;;;;;;13.87;81.32;94332.02;1664616;84;21069;-54
2022/07/10 05:05:10;;;;;;;7.92;3.70;;;;;;;13.95;81.66;94330.37;1666492;85;22639;-54
2022/07/10 05:07:40;;;;;;;4.67;3.85;;;;;;;14.03;81.97;94330.14;1670134;84;21435;-54
2022/07/10 05:10:09;;;;;;;8.78;3.65;;;;;;;14.11;82.00;94328.49;1665770;85;20987;-54
2022/07/10 05:12:37;;;;;;;3.92;3.47;;;;;;;14.17;82.00;94327.38;1662855;85;21035;-54
2022/07/10 05:15:08;;;;;;;9.00;3.60;;;;;;;14.27;82.25;94323.87;1630630;84;20974;-53
2022/07/10 05:17:36;;;;;;;4.78;3.62;;;;;;;14.35;82.02;94325.02;1663565;85;21264;-54
2022/07/10 05:20:05;;;;;;;5.92;4.10;;;;;;;14.42;82.16;94319.06;1668414;85;21074;-54
2022/07/10 05:22:33;;;;;;;6.62;3.67;;;;;;;14.51;81.94;94311.39;1665103;85;20983;-54
2022/07/10 05:25:02;;;;;;;6.22;3.70;;;;;;;14.61;80.96;94316.32;1664207;85;20958;-54
2022/07/10 05:27:31;;;;;;;5.22;4.05;;;;;;;14.64;80.12;94314.60;1665082;85;21017;-54
2022/07/10 05:29:59;;;;;;;8.70;3.37;;;;;;;14.61;79.82;94315.58;1661986;84;21188;-53
2022/07/10 05:32:27;;;;;;;4.40;2.87;;;;;;;14.61;79.37;94314.94;1657153;84;21083;-55
2022/07/10 05:34:58;;;;;;;5.87;3.25;;;;;;;14.62;79.18;94304.00;1664239;85;21589;-54
2022/07/10 05:37:26;;;;;;;5.58;3.12;;;;;;;14.54;79.03;94313.97;1661167;85;21467;-54
2022/07/10 05:39:54;;;;;;;5.05;3.40;;;;;;;14.46;79.74;94319.75;1665077;85;21009;-55
2022/07/10 05:42:22;;;;;;;4.83;3.35;;;;;;;14.47;80.11;94320.53;1665096;85;21272;-53
2022/07/10 05:44:51;;;;;;;3.50;3.20;;;;;;;14.48;80.29;94315.13;1659050;85;21010;-54
2022/07/10 05:47:19;;;;;;;12.68;3.80;;;;;;;14.46;80.59;94316.24;1666769;85;21063;-54
2022/07/10 05:49:47;;;;;;;10.23;4.17;;;;;;;14.44;80.65;94308.41;1660776;84;20985;-54
2022/07/10 05:52:15;;;;;;;14.10;4.47;;;;;;;14.42;80.88;94303.84;1654530;85;21089;-53
2022/07/10 05:54:43;;;;;;;8.20;3.35;;;;;;;14.42;81.14;94303.84;1662521;85;21218;-53
2022/07/10 05:57:12;;;;;;;5.47;3.50;;;;;;;14.41;81.03;94300.33;1663484;85;21017;-54
2022/07/10 05:59:40;;;;;;;7.45;3.52;;;;;;;14.41;81.10;94299.55;1652596;85;20991;-55
2022/07/10 06:02:09;;;;;;;8.95;4.00;;;;;;;14.42;81.29;94298.30;1664101;85;20977;-57
2022/07/10 06:04:37;;;;;;;4.60;3.72;;;;;;;14.45;81.27;94300.87;1665143;85;21439;-54
2022/07/10 06:07:05;;;;;;;6.72;4.20;;;;;;;14.43;81.44;94297.20;1664178;85;21411;-54
2022/07/10 06:09:35;;;;;;;4.53;3.83;;;;;;;14.42;81.54;94298.30;1666717;85;21598;-54
2022/07/10 06:12:04;;;;;;;6.90;3.60;;;;;;;14.43;81.76;94299.97;1665377;84;21394;-54
2022/07/10 06:14:33;;;;;;;4.58;3.77;;;;;;;14.50;81.61;94292.66;1662605;85;21065;-54
2022/07/10 06:17:01;;;;;;;5.70;5.10;;;;;;;14.61;81.17;94295.55;1654435;85;20982;-55
2022/07/10 06:19:30;;;;;;;15.00;10.58;;;;;;;14.69;81.01;94301.45;1625139;84;21812;-53
2022/07/10 06:24:45;;;;;;;6.33;4.53;;;;;;;14.93;80.48;94303.38;1661816;85;20973;-53
2022/07/10 06:27:14;;;;;;;8.58;4.62;;;;;;;15.09;80.07;94294.50;1663818;85;20972;-55
2022/07/10 06:29:42;;;;;;;5.20;4.42;;;;;;;15.21;79.53;94299.67;1663174;85;21092;-54
2022/07/10 06:32:09;;;;;;;11.30;4.72;;;;;;;15.29;79.19;94290.34;1668950;84;21216;-54
2022/07/10 06:34:38;;;;;;;5.72;3.50;;;;;;;15.40;78.83;94296.02;1663441;84;21036;-54
2022/07/10 06:37:06;;;;;;;10.63;3.92;;;;;;;15.50;78.27;94287.05;1626992;85;21050;-54
2022/07/10 06:39:34;;;;;;;6.33;3.72;;;;;;;15.59;77.81;94289.66;1661036;84;21120;-53
2022/07/10 06:42:06;;;;;;;4.75;2.90;;;;;;;15.64;77.18;94292.34;1669281;85;21509;-54
2022/07/10 06:44:36;;;;;;;;;;;;;;;15.69;76.66;94286.84;1662009;85;21313;-55
2022/07/10 06:49:51;;;;;;;10.10;3.00;;;;;;;15.74;76.42;94288.90;1665862;84;21129;-54
2022/07/10 06:52:20;;;;;;;7.45;2.90;;;;;;;15.77;76.06;94283.75;1658913;85;21077;-55
2022/07/10 06:54:48;;;;;;;13.65;5.83;;;;;;;15.80;75.08;94284.18;1658369;85;21081;-55
2022/07/10 06:57:18;;;;;;;7.87;3.95;;;;;;;15.76;74.92;94285.64;1664983;85;21100;-54
2022/07/10 06:59:46;;;;;;;4.35;2.83;;;;;;;15.71;74.93;94282.95;1662138;84;21043;-55
2022/07/10 07:02:17;;;;;;;21.42;4.72;;;;;;;15.71;75.16;94276.66;1663472;85;20986;-54
2022/07/10 07:04:45;;;;;;;7.87;3.37;;;;;;;15.75;74.81;94276.55;1664974;85;21232;-55
2022/07/10 07:07:14;;;;;;;8.93;3.50;;;;;;;15.82;74.45;94276.13;1653568;85;21644;-54
2022/07/10 07:09:44;;;;;;;5.17;3.12;;;;;;;15.94;74.13;94275.58;1669005;85;21852;-54
2022/07/10 07:12:13;;;;;;;6.05;3.50;;;;;;;16.09;73.96;94274.17;1656087;84;21019;-55
2022/07/10 07:14:44;;;;;;;5.80;3.33;;;;;;;16.25;73.94;94269.37;1674553;84;21006;-55
2022/07/10 07:17:14;;;;;;;8.68;3.35;;;;;;;16.43;73.52;94273.17;1659902;85;21013;-55
2022/07/10 07:25:16;;;;;;;9.25;3.52;;;;;;;16.74;71.89;94262.73;1663026;85;20974;-55
2022/07/10 07:27:44;;;;;;;9.98;8.15;;;;;;;16.74;70.89;94259.21;1669627;85;21070;-54
2022/07/10 07:30:15;;;;;;;4.70;3.52;;;;;;;16.74;70.35;94253.66;1666556;85;21610;-54
2022/07/10 07:32:43;;;;;;;4.90;3.10;;;;;;;16.82;70.96;94257.47;1673754;84;21078;-54
2022/07/10 07:35:12;;;;;;;9.75;7.60;;;;;;;16.94;70.43;94250.06;1668935;84;21220;-55
2022/07/10 07:37:45;;;;;;;7.00;4.65;;;;;;;17.03;70.42;94251.86;1660498;85;21030;-54
2022/07/10 07:40:15;;;;;;;8.55;3.75;;;;;;;17.12;69.57;94254.44;1656120;85;21188;-54
2022/07/10 07:42:43;;;;;;;6.47;4.75;;;;;;;17.11;69.37;94250.14;1667490;85;21204;-54
2022/07/10 07:45:13;;;;;;;7.67;3.98;;;;;;;17.08;69.54;94254.66;1656275;85;21026;-54
2022/07/10 07:47:50;;;;;;;8.88;3.70;;;;;;;17.17;69.59;94250.91;1662829;85;21468;-55
2022/07/10 07:50:21;;;;;;;3.77;3.10;;;;;;;17.26;69.74;94254.86;1651556;85;21121;-54
2022/07/10 07:52:49;;;;;;;4.80;2.95;;;;;;;17.35;68.95;94254.64;1667713;85;21085;-55
2022/07/10 07:55:19;;;;;;;4.87;3.15;;;;;;;17.45;69.16;94255.94;1626929;86;38980;-54
2022/07/10 07:57:47;;;;;;;7.65;3.15;;;;;;;17.57;69.35;94250.50;1646049;86;21443;-54
2022/07/10 08:00:18;;;;;;;3.67;3.08;;;;;;;17.73;69.16;94253.94;1656815;85;21248;-55
2022/07/10 08:02:46;;;;;;;5.12;2.92;;;;;;;17.83;68.84;94252.44;1636291;85;21071;-55
2022/07/10 08:05:14;;;;;;;4.00;3.37;;;;;;;17.92;68.17;94249.39;1666982;83;21488;-54
2022/07/10 08:07:53;;;;;;;5.85;3.10;;;;;;;17.96;66.68;94243.70;1648502;85;21136;-54
2022/07/10 08:10:25;;;;;;;3.20;2.90;;;;;;;18.07;67.42;94249.90;1630089;86;21058;-53
2022/07/10 08:12:54;;;;;;;4.28;2.92;;;;;;;18.28;67.18;94233.84;1646634;86;21247;-54
2022/07/10 08:15:22;;;;;;;2.85;2.65;;;;;;;18.53;65.47;94238.34;1657227;85;21085;-54
2022/07/10 08:17:55;;;;;;;5.97;3.33;;;;;;;18.80;65.03;94235.47;1651266;85;21066;-56
2022/07/10 08:20:24;;;;;;;5.85;3.22;;;;;;;19.02;64.51;94231.84;1640453;85;21147;-53
2022/07/10 08:22:53;;;;;;;5.08;3.10;;;;;;;19.22;63.53;94238.48;1616341;87;21128;-54
2022/07/10 08:25:22;;;;;;;4.03;2.92;;;;;;;19.46;61.80;94229.60;1637129;85;21852;-55
2022/07/10 08:27:50;;;;;;;4.40;2.70;;;;;;;19.60;59.85;94229.13;1637635;85;21114;-54
2022/07/10 08:30:18;;;;;;;3.92;2.92;;;;;;;19.57;59.16;94223.94;1648870;85;21265;-55
2022/07/10 08:32:48;;;;;;;5.65;2.62;;;;;;;19.55;58.01;94213.92;1615744;86;21241;-54
2022/07/10 08:35:17;;;;;;;5.62;2.00;;;;;;;19.59;57.95;94214.41;1631627;85;21093;-55
2022/07/10 08:37:46;;;;;;;2.50;2.20;;;;;;;19.71;56.72;94210.27;1609924;86;21074;-54
2022/07/10 08:40:15;;;;;;;6.45;3.90;;;;;;;19.80;55.97;94214.14;1620091;86;20994;-54
2022/07/10 08:42:46;;;;;;;6.55;4.50;;;;;;;19.93;55.69;94210.09;1639104;85;21003;-55
2022/07/10 08:45:15;;;;;;;5.97;4.10;;;;;;;20.11;55.64;94209.45;1646906;86;21113;-54
2022/07/10 08:47:44;;;;;;;13.13;7.25;;;;;;;20.35;56.79;94210.23;1639312;85;21630;-54
2022/07/10 08:50:22;;;;;;;6.12;3.92;;;;;;;20.54;56.42;94199.13;1640184;86;21837;-53
2022/07/10 08:53:04;;;;;;;6.87;3.30;;;;;;;20.76;55.27;94202.42;1643139;86;21066;-55
2022/07/10 08:55:33;;;;;;;5.60;3.10;;;;;;;20.91;54.20;94195.05;1626238;86;21156;-54
2022/07/10 08:58:01;;;;;;;7.80;3.17;;;;;;;21.02;53.54;94203.28;1649064;85;21164;-55
2022/07/10 09:00:30;;;;;;;4.45;2.60;;;;;;;21.14;53.97;94201.21;1629460;86;21482;-54
2022/07/10 09:02:59;;;;;;;15.28;8.65;;;;;;;21.30;54.69;94203.03;1630790;85;21131;-55
2022/07/10 09:05:27;;;;;;;4.58;3.12;;;;;;;21.42;53.58;94200.84;1645106;86;21109;-55
2022/07/10 09:07:56;;;;;;;4.37;3.67;;;;;;;21.50;54.22;94198.95;1625288;85;20997;-55
2022/07/10 09:10:27;;;;;;;6.47;3.00;;;;;;;21.53;54.08;94203.48;1640167;85;21035;-54
2022/07/10 09:13:02;;;;;;;2.72;2.50;;;;;;;21.44;53.21;94196.23;1632595;85;21445;-55
2022/07/10 09:15:32;;;;;;;2.85;2.05;;;;;;;21.36;53.81;94195.97;1638052;85;21218;-55
2022/07/10 09:18:08;;;;;;;2.25;2.05;;;;;;;21.26;53.61;94196.25;1638682;85;20967;-55
2022/07/10 09:20:39;;;;;;;3.67;2.33;;;;;;;21.10;53.86;94196.56;1608135;87;21120;-55
2022/07/10 09:23:20;;;;;;;3.02;2.30;;;;;;;20.91;54.47;94190.20;1630699;85;20986;-55
2022/07/10 09:25:52;;;;;;;5.70;2.20;;;;;;;20.76;55.35;94191.89;1644028;85;20990;-54
2022/07/10 09:28:23;;;;;;;2.60;2.00;;;;;;;20.55;54.62;94193.00;1620312;87;21239;-54
2022/07/10 09:30:51;;;;;;;3.90;2.52;;;;;;;20.40;54.99;94189.12;1642182;86;21027;-55
2022/07/10 09:33:35;;;;;;;6.55;2.20;;;;;;;20.23;55.15;94185.73;1637642;85;21458;-55
2022/07/10 09:36:06;;;;;;;3.72;2.20;;;;;;;20.17;55.61;94192.02;1639550;85;21170;-55
2022/07/10 09:38:51;;;;;;;4.20;2.45;;;;;;;20.07;56.04;94186.64;1618528;86;21002;-55
2022/07/10 09:41:25;;;;;;;3.50;2.33;;;;;;;19.88;56.40;94188.56;1643021;85;21229;-54
2022/07/10 09:44:03;;;;;;;3.15;2.00;;;;;;;19.77;57.61;94191.43;1646332;85;21522;-55
2022/07/10 09:46:40;;;;;;;3.55;2.17;;;;;;;19.71;56.30;94191.38;1648322;83;21014;-56
2022/07/10 09:49:13;;;;;;;4.30;2.35;;;;;;;19.73;56.54;94185.37;1697122;83;21472;-57
2022/07/10 09:51:45;;;;;;;4.35;2.22;;;;;;;19.83;56.54;94185.18;1692909;83;21015;-55
2022/07/10 09:54:13;;;;;;;7.25;2.02;;;;;;;19.96;56.58;94188.75;1670738;83;21498;-56
2022/07/10 09:56:51;;;;;;;4.70;2.67;;;;;;;20.03;54.93;94184.01;1699533;83;21204;-55
2022/07/10 09:59:20;;;;;;;2.62;2.42;;;;;;;20.01;55.25;94174.74;1701249;83;21122;-54
2022/07/10 10:01:52;;;;;;;3.92;2.40;;;;;;;20.07;56.42;94171.94;1690113;83;21538;-55
2022/07/10 10:04:25;;;;;;;5.97;2.67;;;;;;;20.13;55.64;94168.55;1653596;84;21106;-56
2022/07/10 10:06:56;;;;;;;4.42;2.37;;;;;;;20.31;55.66;94168.49;1643545;85;21944;-54
2022/07/10 10:09:34;;;;;;;4.12;2.52;;;;;;;20.49;55.76;94167.79;1648180;86;21081;-54
2022/07/10 10:12:19;;;;;;;2.87;1.95;;;;;;;20.68;55.73;94167.95;1638217;85;21525;-56
2022/07/10 10:14:48;;;;;;;3.70;3.20;;;;;;;20.76;54.95;94157.68;1633054;85;21079;-55
2022/07/10 10:17:18;;;;;;;8.98;2.87;;;;;;;20.80;54.44;94154.59;1624428;86;21594;-56
2022/07/10 10:22:33;;;;;;;4.95;2.58;;;;;;;20.83;54.21;94158.53;1606979;86;21059;-54
2022/07/10 10:25:01;;;;;;;6.08;2.92;;;;;;;20.82;54.26;94157.63;1631597;84;21057;-55
2022/07/10 10:27:29;;;;;;;6.87;3.27;;;;;;;20.84;53.92;94149.48;1643287;87;21123;-54
2022/07/10 10:29:58;;;;;;;3.12;2.25;;;;;;;20.83;52.92;94159.12;1645598;85;21083;-54
2022/07/10 10:32:26;;;;;;;6.15;2.30;;;;;;;20.82;52.87;94164.61;1635660;86;21149;-54
2022/07/10 10:34:58;;;;;;;4.53;2.40;;;;;;;20.77;53.66;94157.05;1573925;87;21042;-54
2022/07/10 10:37:44;;;;;;;4.43;2.53;;;;;;;20.73;53.42;94157.34;1627003;86;21073;-55
2022/07/10 10:40:14;;;;;;;8.05;2.72;;;;;;;20.62;52.59;94156.09;1615464;86;21518;-56
2022/07/10 10:42:46;;;;;;;3.72;2.40;;;;;;;20.48;53.86;94158.66;1627042;87;21047;-54
2022/07/10 10:45:34;;;;;;;2.47;2.25;;;;;;;20.42;53.43;94150.22;1595972;86;21232;-55
2022/07/10 10:48:12;;;;;;;3.42;2.17;;;;;;;20.29;52.57;94147.31;1638053;85;21132;-53
2022/07/10 10:50:54;;;;;;;3.80;2.30;;;;;;;20.24;52.90;94152.33;1633478;86;21505;-55
2022/07/10 10:53:27;;;;;;;4.07;2.37;;;;;;;20.21;53.50;94146.39;1631776;86;21302;-56
2022/07/10 10:56:07;;;;;;;4.95;2.75;;;;;;;20.30;54.52;94148.20;1630013;86;21022;-55
2022/07/10 10:58:41;;;;;;;3.22;2.10;;;;;;;20.37;55.38;94151.05;1634595;86;21246;-54
2022/07/10 11:01:26;;;;;;;3.47;1.98;;;;;;;20.47;54.48;94149.39;1632218;87;21412;-56
2022/07/10 11:04:14;;;;;;;5.08;2.10;;;;;;;20.98;53.44;94139.27;1638880;86;21578;-55
2022/07/10 11:06:53;;;;;;;3.22;2.25;;;;;;;21.60;52.31;94134.27;1639641;86;21117;-56
2022/07/10 11:09:32;;;;;;;4.53;2.10;;;;;;;22.35;51.17;94136.31;1636832;86;21033;-55
2022/07/10 11:12:06;;;;;;;3.75;2.52;;;;;;;23.05;49.79;94129.16;1629823;86;21448;-55
2022/07/10 11:14:39;;;;;;;3.10;2.00;;;;;;;23.46;47.12;94127.14;1634368;86;21091;-55
2022/07/10 11:17:09;;;;;;;3.92;2.00;;;;;;;23.60;45.45;94129.34;1636343;86;21243;-55
2022/07/10 11:19:39;;;;;;;5.85;2.27;;;;;;;23.70;45.54;94128.98;1612663;86;21124;-55
2022/07/10 11:22:42;;;;;;;17.27;2.17;;;;;;;23.52;44.96;94124.95;1641632;85;21070;-56
2022/07/10 11:26:09;;;;;;;4.67;2.00;;;;;;;23.21;43.55;94142.11;1661164;85;22154;-54
2022/07/10 11:28:46;;;;;;;3.15;2.00;;;;;;;22.51;44.32;94147.22;1659087;85;21089;-54
2022/07/10 11:31:14;;;;;;;2.95;2.00;;;;;;;21.75;47.61;94168.95;1665320;85;20963;-55
2022/07/10 11:33:44;;;;;;;2.98;2.30;;;;;;;21.17;53.28;94180.59;1656673;85;21030;-55
2022/07/10 11:36:15;;;;;;;5.00;2.00;;;;;;;20.55;54.38;94179.03;1671567;85;21114;-55
2022/07/10 11:38:43;;;;;;;2.10;1.57;;;;;;;20.00;55.18;94184.41;1670581;84;21212;-57
2022/07/10 11:41:19;;;;;;;2.33;1.90;;;;;;;19.43;57.60;94188.02;1657754;85;21054;-56
2022/07/10 11:43:57;;;;;;;4.42;2.70;;;;;;;18.95;59.21;94189.14;1667019;85;21059;-55
2022/07/10 11:46:27;;;;;;;4.25;2.35;;;;;;;18.54;61.83;94178.56;1652666;85;21073;-56
2022/07/10 11:48:59;;;;;;;2.67;2.45;;;;;;;18.23;63.44;94178.24;1636495;86;21099;-53
2022/07/10 11:51:28;;;;;;;4.12;3.65;;;;;;;17.94;64.49;94178.66;1622450;86;21275;-54
2022/07/10 11:54:05;;;;;;;;;;;;;;;17.75;67.01;94176.28;1633604;86;21074;-58
2022/07/10 11:56:38;;;;;;;6.28;3.92;;;;;;;17.64;68.01;94173.52;1634642;86;20149;-55
2022/07/10 11:59:14;;;;;;;6.15;3.50;;;;;;;17.60;69.44;94173.77;1635601;86;21042;-56
2022/07/10 12:01:49;;;;;;;4.22;2.30;;;;;;;17.68;70.70;94167.06;1633473;86;21575;-55
2022/07/10 12:04:28;;;;;;;2.92;2.55;;;;;;;17.69;68.81;94171.36;1642271;86;21451;-55